createdAt,value
2022-10-05T00:01:32.414Z,80.99
2022-10-05T00:04:15.512Z,80.82
2022-10-05T00:06:52.047Z,81.17
2022-10-05T00:09:23.252Z,81.19
2022-10-05T00:11:53.265Z,81.53
2022-10-05T00:14:32.375Z,81.05
2022-10-05T00:17:03.184Z,81.19
2022-10-05T00:19:36.557Z,81.26
2022-10-05T00:22:15.140Z,81.48
2022-10-05T00:24:44.431Z,81.36
2022-10-05T00:27:20.131Z,81.42
2022-10-05T00:29:51.964Z,81.69
2022-10-05T00:32:20.817Z,81.71
2022-10-05T00:34:49.664Z,81.33
2022-10-05T00:37:19.994Z,81.32
2022-10-05T00:39:50.826Z,80.91
2022-10-05T00:42:44.296Z,80.97
2022-10-05T00:45:20.261Z,81.44
2022-10-05T00:48:08.216Z,81.28
2022-10-05T00:51:08.620Z,81.62
2022-10-05T00:53:47.661Z,81.61
2022-10-05T00:56:41.861Z,81.62
2022-10-05T00:59:26.188Z,81.37
2022-10-05T01:02:04.295Z,81.40
2022-10-05T01:04:44.401Z,81.60
2022-10-05T01:07:26.781Z,81.13
2022-10-05T01:10:07.625Z,80.91
2022-10-05T01:12:50.342Z,80.58
2022-10-05T01:15:29.725Z,80.78
2022-10-05T01:18:14.247Z,80.39
2022-10-05T01:20:58.835Z,81.05
2022-10-05T01:24:25.142Z,81.31
2022-10-05T01:27:20.230Z,81.17
2022-10-05T01:30:00.508Z,81.14
2022-10-05T01:32:38.684Z,81.41
2022-10-05T01:35:22.589Z,81.31
2022-10-05T01:38:14.115Z,80.89
2022-10-05T01:40:59.820Z,81.28
2022-10-05T01:43:38.255Z,81.64
2022-10-05T01:46:26.437Z,81.68
2022-10-05T01:49:18.528Z,81.53
2022-10-05T01:52:44.797Z,81.86
2022-10-05T01:55:26.791Z,81.12
2022-10-05T01:58:10.762Z,81.41
2022-10-05T02:00:51.766Z,81.70
2022-10-05T02:03:29.514Z,81.66
2022-10-05T02:06:06.357Z,81.58
2022-10-05T02:08:45.056Z,81.73
2022-10-05T02:11:15.997Z,82.12
2022-10-05T02:13:51.659Z,82.01
2022-10-05T02:16:28.553Z,82.12
2022-10-05T02:19:04.642Z,81.80
2022-10-05T02:21:37.757Z,82.11
2022-10-05T02:24:13.606Z,81.55
2022-10-05T02:26:43.410Z,80.74
2022-10-05T02:29:15.842Z,80.41
2022-10-05T02:31:52.010Z,81.13
2022-10-05T02:34:40.764Z,81.07
2022-10-05T02:37:36.797Z,81.10
2022-10-05T02:40:23.252Z,81.01
2022-10-05T02:43:06.498Z,80.55
2022-10-05T02:45:46.238Z,80.65
2022-10-05T02:48:31.713Z,80.08
2022-10-05T02:51:16.465Z,79.85
2022-10-05T02:54:07.152Z,80.03
2022-10-05T02:56:49.503Z,80.54
2022-10-05T02:59:31.312Z,80.61
2022-10-05T03:02:16.305Z,80.54
2022-10-05T03:04:59.227Z,80.99
2022-10-05T03:07:38.937Z,80.99
2022-10-05T03:10:16.071Z,80.92
2022-10-05T03:13:01.818Z,81.22
2022-10-05T03:15:59.986Z,81.06
2022-10-05T03:18:53.663Z,81.25
2022-10-05T03:21:43.190Z,81.10
2022-10-05T03:24:35.840Z,81.28
2022-10-05T03:27:18.899Z,81.32
2022-10-05T03:30:00.354Z,81.07
2022-10-05T03:32:46.833Z,81.43
2022-10-05T03:35:28.352Z,81.18
2022-10-05T03:38:13.974Z,81.00
2022-10-05T03:40:51.798Z,81.12
2022-10-05T03:43:44.140Z,81.26
2022-10-05T03:46:26.138Z,80.94
2022-10-05T03:49:10.854Z,80.66
2022-10-05T03:51:46.657Z,80.14
2022-10-05T03:54:24.857Z,80.17
2022-10-05T03:57:10.979Z,80.12
2022-10-05T03:59:50.881Z,80.23
2022-10-05T04:02:28.225Z,80.19
2022-10-05T04:05:07.023Z,80.48
2022-10-05T04:07:46.814Z,80.25
2022-10-05T04:10:52.219Z,80.77
2022-10-05T04:13:36.807Z,81.22
2022-10-05T04:16:14.604Z,81.12
2022-10-05T04:18:51.982Z,80.30
2022-10-05T04:21:26.532Z,80.27
2022-10-05T04:24:03.391Z,80.71
2022-10-05T04:26:43.110Z,80.58
2022-10-05T04:29:31.307Z,80.46
2022-10-05T04:32:31.559Z,80.78
2022-10-05T04:35:39.811Z,81.19
2022-10-05T04:38:46.592Z,81.31
2022-10-05T04:41:52.752Z,80.40
2022-10-05T04:45:31.841Z,80.38
2022-10-05T04:48:40.407Z,81.15
2022-10-05T04:51:35.941Z,80.69
2022-10-05T04:54:24.541Z,80.41
2022-10-05T04:56:59.777Z,80.06
2022-10-05T05:00:04.757Z,80.54
2022-10-05T05:02:58.347Z,80.49
2022-10-05T05:06:05.142Z,80.06
2022-10-05T05:09:03.742Z,79.94
2022-10-05T05:11:47.641Z,80.00
2022-10-05T05:14:56.855Z,80.23
2022-10-05T05:17:48.390Z,80.02
2022-10-05T05:20:27.133Z,79.86
2022-10-05T05:23:11.890Z,80.11
2022-10-05T05:25:57.474Z,80.09
2022-10-05T05:28:37.479Z,80.56
2022-10-05T05:31:23.962Z,80.15
2022-10-05T05:34:10.077Z,80.06
2022-10-05T05:37:00.010Z,80.18
2022-10-05T05:39:38.625Z,80.18
2022-10-05T05:42:35.614Z,80.21
2022-10-05T05:45:18.541Z,79.99
2022-10-05T05:47:55.234Z,80.25
2022-10-05T05:50:44.384Z,80.53
2022-10-05T05:53:22.633Z,80.46
2022-10-05T05:56:00.840Z,80.48
2022-10-05T05:58:37.042Z,81.08
2022-10-05T06:01:31.770Z,80.45
2022-10-05T06:04:13.288Z,80.50
2022-10-05T06:06:49.432Z,80.68
2022-10-05T06:09:28.149Z,80.89
2022-10-05T06:12:29.386Z,81.19
2022-10-05T06:15:05.264Z,81.22
2022-10-05T06:17:43.669Z,81.12
2022-10-05T06:20:25.550Z,80.91
2022-10-05T06:22:59.069Z,81.05
2022-10-05T06:25:43.378Z,81.30
2022-10-05T06:28:16.280Z,81.56
2022-10-05T06:31:02.139Z,81.17
2022-10-05T06:33:49.352Z,81.17
2022-10-05T06:36:41.649Z,80.77
2022-10-05T06:39:51.921Z,80.98
2022-10-05T06:43:07.899Z,80.53
2022-10-05T06:45:59.400Z,80.34
2022-10-05T06:49:19.564Z,80.62
2022-10-05T06:52:10.058Z,80.66
2022-10-05T06:55:04.404Z,81.14
2022-10-05T06:57:55.793Z,81.04
2022-10-05T07:00:29.025Z,81.70
2022-10-05T07:03:11.726Z,81.27
2022-10-05T07:06:05.260Z,81.84
2022-10-05T07:08:55.146Z,81.98
2022-10-05T07:11:42.298Z,82.44
2022-10-05T07:14:27.421Z,82.40
2022-10-05T07:17:24.532Z,82.42
2022-10-05T07:20:09.641Z,82.75
2022-10-05T07:23:21.417Z,82.73
2022-10-05T07:26:06.116Z,82.72
2022-10-05T07:28:49.929Z,83.14
2022-10-05T07:31:33.467Z,83.27
2022-10-05T07:34:11.377Z,83.70
2022-10-05T07:37:07.567Z,83.46
2022-10-05T07:40:01.914Z,84.00
2022-10-05T07:42:53.238Z,84.04
2022-10-05T07:45:31.308Z,84.18
2022-10-05T07:48:16.871Z,84.58
2022-10-05T07:51:00.924Z,84.78
2022-10-05T07:53:38.243Z,84.88
2022-10-05T07:56:18.569Z,85.10
2022-10-05T07:58:58.615Z,85.72
2022-10-05T08:01:33.156Z,86.00
2022-10-05T08:04:15.703Z,85.85
2022-10-05T08:06:51.932Z,85.91
2022-10-05T08:09:40.336Z,86.29
2022-10-05T08:12:32.439Z,85.78
2022-10-05T08:15:14.949Z,85.83
2022-10-05T08:17:54.362Z,86.12
2022-10-05T08:20:43.744Z,86.07
2022-10-05T08:23:23.697Z,86.23
2022-10-05T08:26:13.968Z,86.50
2022-10-05T08:28:53.320Z,86.88
2022-10-05T08:31:28.044Z,87.43
2022-10-05T08:34:07.362Z,86.85
2022-10-05T08:36:56.424Z,87.05
2022-10-05T08:39:31.760Z,87.06
2022-10-05T08:42:58.970Z,88.16
2022-10-05T08:46:25.654Z,88.12
2022-10-05T08:49:24.391Z,87.09
2022-10-05T08:52:26.555Z,85.46
2022-10-05T08:55:46.912Z,85.70
2022-10-05T08:59:15.054Z,85.80
2022-10-05T09:02:14.742Z,85.49
2022-10-05T09:05:31.147Z,85.51
2022-10-05T09:08:45.727Z,85.95
2022-10-05T09:11:21.898Z,85.54
2022-10-05T09:14:30.986Z,84.74
2022-10-05T09:17:28.378Z,84.11
2022-10-05T09:20:32.339Z,82.02
2022-10-05T09:23:15.297Z,82.62
2022-10-05T09:25:58.884Z,81.64
2022-10-05T09:28:36.620Z,80.98
2022-10-05T09:31:45.323Z,78.68
2022-10-05T09:34:50.442Z,78.65
2022-10-05T09:38:10.360Z,78.31
2022-10-05T09:41:31.608Z,79.02
2022-10-05T09:44:42.302Z,80.15
2022-10-05T09:48:01.358Z,79.82
2022-10-05T09:51:06.043Z,78.55
2022-10-05T09:54:25.964Z,77.92
2022-10-05T09:57:42.438Z,78.40
2022-10-05T10:00:41.222Z,77.83
2022-10-05T10:03:57.992Z,78.97
2022-10-05T10:06:55.722Z,78.23
2022-10-05T10:09:42.473Z,78.33
2022-10-05T10:12:47.119Z,78.37
2022-10-05T10:15:59.037Z,79.01
2022-10-05T10:19:24.867Z,77.25
2022-10-05T10:22:43.332Z,77.12
2022-10-05T10:26:17.429Z,76.93
2022-10-05T10:29:28.913Z,77.55
2022-10-05T10:32:37.933Z,79.67
2022-10-05T10:35:24.037Z,80.72
2022-10-05T10:38:31.583Z,81.71
2022-10-05T10:41:42.410Z,81.46
2022-10-05T10:45:08.488Z,80.44
2022-10-05T10:47:53.530Z,78.64
2022-10-05T10:51:16.161Z,78.73
2022-10-05T10:54:36.282Z,78.58
2022-10-05T10:57:11.334Z,76.90
2022-10-05T11:00:28.539Z,77.25
2022-10-05T11:03:39.028Z,77.49
2022-10-05T11:06:59.856Z,78.26
2022-10-05T11:10:04.450Z,78.92
2022-10-05T11:13:17.059Z,79.49
2022-10-05T11:16:44.113Z,79.61
2022-10-05T11:20:03.627Z,79.33
2022-10-05T11:23:00.087Z,79.36
2022-10-05T11:26:18.375Z,78.72
2022-10-05T11:29:27.297Z,79.88
2022-10-05T11:32:37.020Z,80.91
2022-10-05T11:35:34.812Z,81.42
2022-10-05T11:38:37.946Z,81.55
2022-10-05T11:42:00.440Z,81.87
2022-10-05T11:45:26.025Z,82.21
2022-10-05T11:48:42.248Z,81.76
2022-10-05T11:51:35.582Z,81.72
2022-10-05T11:55:05.906Z,80.92
2022-10-05T11:57:38.940Z,79.55
2022-10-05T12:00:19.481Z,78.74
2022-10-05T12:04:15.480Z,79.79
2022-10-05T12:07:13.962Z,80.01
2022-10-05T12:10:19.798Z,80.66
2022-10-05T12:13:20.085Z,79.82
2022-10-05T12:15:58.844Z,77.96
2022-10-05T12:18:52.098Z,77.60
2022-10-05T12:21:33.662Z,76.64
2022-10-05T12:24:14.328Z,76.20
2022-10-05T12:26:52.077Z,76.51
2022-10-05T12:29:32.414Z,76.71
2022-10-05T12:32:09.055Z,76.60
2022-10-05T12:34:59.017Z,76.48
2022-10-05T12:37:47.825Z,75.96
2022-10-05T12:40:29.191Z,76.00
2022-10-05T12:43:07.644Z,75.62
2022-10-05T12:46:00.742Z,75.46
2022-10-05T12:49:14.374Z,74.35
2022-10-05T12:51:53.076Z,75.59
2022-10-05T12:54:37.309Z,75.26
2022-10-05T12:57:20.264Z,75.43
2022-10-05T12:59:57.317Z,76.26
2022-10-05T13:02:39.192Z,76.81
2022-10-05T13:05:23.848Z,75.58
2022-10-05T13:08:14.030Z,76.43
2022-10-05T13:10:49.971Z,76.73
2022-10-05T13:13:39.517Z,77.23
2022-10-05T13:16:29.972Z,76.43
2022-10-05T13:19:35.834Z,76.97
2022-10-05T13:22:38.599Z,76.92
2022-10-05T13:25:30.184Z,76.65
2022-10-05T13:28:17.472Z,77.12
2022-10-05T13:31:00.347Z,78.33
2022-10-05T13:33:52.185Z,78.56
2022-10-05T13:36:31.457Z,78.59
2022-10-05T13:39:14.359Z,78.97
2022-10-05T13:41:56.908Z,79.33
2022-10-05T13:44:36.641Z,78.94
2022-10-05T13:47:16.862Z,79.33
2022-10-05T13:49:54.950Z,79.52
2022-10-05T13:52:47.935Z,79.14
2022-10-05T13:55:41.847Z,79.63
2022-10-05T13:58:24.330Z,79.74
2022-10-05T14:00:57.143Z,79.21
2022-10-05T14:03:31.368Z,79.12
2022-10-05T14:06:03.766Z,79.32
2022-10-05T14:08:36.809Z,78.89
2022-10-05T14:11:31.327Z,78.69
2022-10-05T14:14:16.245Z,78.99
2022-10-05T14:16:54.893Z,79.56
2022-10-05T14:19:29.194Z,79.26
2022-10-05T14:22:03.962Z,77.82
2022-10-05T14:24:44.302Z,77.43
2022-10-05T14:27:25.628Z,76.79
2022-10-05T14:29:59.870Z,75.62
2022-10-05T14:32:33.994Z,75.35
2022-10-05T14:35:16.384Z,74.05
2022-10-05T14:37:52.488Z,74.11
2022-10-05T14:40:33.160Z,74.53
2022-10-05T14:43:21.624Z,75.43
2022-10-05T14:45:59.541Z,76.07
2022-10-05T14:48:38.745Z,76.20
2022-10-05T14:51:12.915Z,76.66
2022-10-05T14:53:47.199Z,78.00
2022-10-05T14:56:42.511Z,78.90
2022-10-05T15:00:05.762Z,79.40
2022-10-05T15:03:27.795Z,79.22
2022-10-05T15:06:03.939Z,79.33
2022-10-05T15:09:17.322Z,79.68
2022-10-05T15:11:54.648Z,79.45
2022-10-05T15:14:30.145Z,79.78
2022-10-05T15:17:06.089Z,79.85
2022-10-05T15:19:54.010Z,80.06
2022-10-05T15:22:33.205Z,80.08
2022-10-05T15:25:16.297Z,80.51
2022-10-05T15:28:09.879Z,80.87
2022-10-05T15:30:48.532Z,80.97
2022-10-05T15:33:31.416Z,80.77
2022-10-05T15:36:11.198Z,81.42
2022-10-05T15:39:00.235Z,81.57
2022-10-05T15:41:49.822Z,81.77
2022-10-05T15:44:36.484Z,82.08
2022-10-05T15:47:11.159Z,82.63
2022-10-05T15:49:57.553Z,83.22
2022-10-05T15:52:37.380Z,83.36
2022-10-05T15:55:35.345Z,83.76
2022-10-05T15:58:44.167Z,83.63
2022-10-05T16:01:25.858Z,83.34
2022-10-05T16:04:06.991Z,83.54
2022-10-05T16:07:08.122Z,83.62
2022-10-05T16:09:52.433Z,83.81
2022-10-05T16:12:47.959Z,83.59
2022-10-05T16:15:28.670Z,83.96
2022-10-05T16:18:38.089Z,83.85
2022-10-05T16:21:20.736Z,84.34
2022-10-05T16:24:07.157Z,83.84
2022-10-05T16:26:57.610Z,84.42
2022-10-05T16:29:47.833Z,84.63
2022-10-05T16:32:23.179Z,85.34
2022-10-05T16:35:14.873Z,85.59
2022-10-05T16:38:00.441Z,84.94
2022-10-05T16:40:45.729Z,84.83
2022-10-05T16:43:36.107Z,84.60
2022-10-05T16:46:22.295Z,84.86
2022-10-05T16:49:04.704Z,85.38
2022-10-05T16:51:51.499Z,85.36
2022-10-05T16:54:26.544Z,85.11
2022-10-05T16:57:10.631Z,85.75
2022-10-05T17:00:21.143Z,85.69
2022-10-05T17:03:33.280Z,85.31
2022-10-05T17:07:01.242Z,85.05
2022-10-05T17:10:03.813Z,85.41
2022-10-05T17:12:58.227Z,85.80
2022-10-05T17:16:04.622Z,85.22
2022-10-05T17:19:18.004Z,85.27
2022-10-05T17:22:01.086Z,85.57
2022-10-05T17:24:57.544Z,85.33
2022-10-05T17:27:55.125Z,85.06
2022-10-05T17:30:54.001Z,85.27
2022-10-05T17:33:32.255Z,85.16
2022-10-05T17:36:22.159Z,85.66
2022-10-05T17:38:54.319Z,85.25
2022-10-05T17:41:28.583Z,85.28
2022-10-05T17:44:28.458Z,85.80
2022-10-05T17:47:05.147Z,85.65
2022-10-05T17:50:20.405Z,85.86
2022-10-05T17:53:39.456Z,86.08
2022-10-05T17:56:09.266Z,85.73
2022-10-05T17:59:06.825Z,85.71
2022-10-05T18:01:40.247Z,86.11
2022-10-05T18:04:40.469Z,85.70
2022-10-05T18:07:25.158Z,85.18
2022-10-05T18:10:20.220Z,85.06
2022-10-05T18:12:52.453Z,85.15
2022-10-05T18:15:49.299Z,84.69
2022-10-05T18:19:16.802Z,84.82
2022-10-05T18:22:27.905Z,84.54
2022-10-05T18:25:09.887Z,84.36
2022-10-05T18:28:15.306Z,84.25
2022-10-05T18:31:11.267Z,84.50
2022-10-05T18:34:27.629Z,84.39
2022-10-05T18:37:17.754Z,84.80
2022-10-05T18:40:28.350Z,84.60
2022-10-05T18:43:18.101Z,84.86
2022-10-05T18:46:12.569Z,84.45
2022-10-05T18:48:58.144Z,84.44
2022-10-05T18:51:41.305Z,84.29
2022-10-05T18:54:32.494Z,84.61
2022-10-05T18:57:36.637Z,84.62
2022-10-05T19:00:17.224Z,84.62
2022-10-05T19:03:22.437Z,84.35
2022-10-05T19:06:13.123Z,85.12
2022-10-05T19:08:56.780Z,84.94
2022-10-05T19:11:41.070Z,85.16
2022-10-05T19:14:31.472Z,85.22
2022-10-05T19:17:24.455Z,85.46
2022-10-05T19:20:23.822Z,85.17
2022-10-05T19:23:34.648Z,85.51
2022-10-05T19:26:16.613Z,85.29
2022-10-05T19:29:03.049Z,85.66
2022-10-05T19:31:42.080Z,85.68
2022-10-05T19:34:34.571Z,86.10
2022-10-05T19:37:23.215Z,86.33
2022-10-05T19:40:22.487Z,86.70
2022-10-05T19:43:35.348Z,86.37
2022-10-05T19:46:34.732Z,87.01
2022-10-05T19:49:03.901Z,87.31
2022-10-05T19:51:38.043Z,87.63
2022-10-05T19:54:25.042Z,87.81
2022-10-05T20:11:22.936Z,88.38
2022-10-05T20:14:20.848Z,87.63
2022-10-05T20:17:37.605Z,88.19
2022-10-05T20:20:38.374Z,87.75
2022-10-05T20:23:25.033Z,88.37
2022-10-05T20:26:11.734Z,88.73
2022-10-05T20:28:41.974Z,88.60
2022-10-05T20:31:10.729Z,88.99
2022-10-05T20:33:44.140Z,88.92
2022-10-05T20:36:18.659Z,89.29
2022-10-05T20:38:47.589Z,89.47
2022-10-05T20:41:16.747Z,88.95
2022-10-05T20:43:47.287Z,88.98
2022-10-05T20:46:17.831Z,89.34
2022-10-05T20:48:46.478Z,89.11
2022-10-05T20:51:18.065Z,89.20
2022-10-05T20:53:47.203Z,89.59
2022-10-05T20:56:16.238Z,89.61
2022-10-05T20:58:46.272Z,89.51
2022-10-05T21:01:19.980Z,89.69
2022-10-05T21:03:48.897Z,89.43
2022-10-05T21:06:28.262Z,89.88
2022-10-05T21:08:57.238Z,89.71
2022-10-05T21:11:26.903Z,89.71
2022-10-05T21:13:57.918Z,89.51
2022-10-05T21:16:29.766Z,89.94
2022-10-05T21:18:58.812Z,89.85
2022-10-05T21:21:28.461Z,89.84
2022-10-05T21:23:57.217Z,90.15
2022-10-05T21:26:31.223Z,90.14
2022-10-05T21:30:38.377Z,89.67
2022-10-05T21:33:08.443Z,89.75
2022-10-05T21:36:02.834Z,89.82
2022-10-05T21:38:31.617Z,90.33
2022-10-05T21:41:03.597Z,90.11
2022-10-05T21:43:32.378Z,90.12
2022-10-05T21:46:01.470Z,90.12
2022-10-05T21:48:33.934Z,90.31
2022-10-05T21:51:03.892Z,90.48
2022-10-05T21:53:36.927Z,90.66
2022-10-05T21:56:13.851Z,90.43
2022-10-05T21:58:46.535Z,90.60
2022-10-05T22:01:18.822Z,90.85
2022-10-05T22:03:51.969Z,90.36
2022-10-05T22:06:21.281Z,90.80
2022-10-05T22:08:50.731Z,90.88
2022-10-05T22:11:19.992Z,91.01
2022-10-05T22:13:51.332Z,90.91
2022-10-05T22:16:23.541Z,90.82
2022-10-05T22:18:53.785Z,90.90
2022-10-05T22:21:22.629Z,91.92
2022-10-05T22:23:51.705Z,91.59
2022-10-05T22:26:24.143Z,91.67
2022-10-05T22:28:55.703Z,91.82
2022-10-05T22:31:24.829Z,91.64
2022-10-05T22:33:55.132Z,91.88
2022-10-05T22:36:24.191Z,91.79
2022-10-05T22:38:53.140Z,91.86
2022-10-05T22:41:21.911Z,92.19
2022-10-05T22:43:51.375Z,92.32
2022-10-05T22:46:20.574Z,92.36
2022-10-05T22:48:49.439Z,92.42
2022-10-05T22:51:19.762Z,92.60
2022-10-05T22:53:48.490Z,92.75
2022-10-05T22:56:17.651Z,93.00
2022-10-05T22:58:47.033Z,92.66
2022-10-05T23:01:18.901Z,92.60
2022-10-05T23:03:48.414Z,92.60
2022-10-05T23:06:21.646Z,92.61
2022-10-05T23:08:54.237Z,92.90
2022-10-05T23:11:26.071Z,93.06
2022-10-05T23:13:57.042Z,93.02
2022-10-05T23:16:29.797Z,92.66
2022-10-05T23:18:59.215Z,92.71
2022-10-05T23:21:31.634Z,92.69
2022-10-05T23:24:00.322Z,92.50
2022-10-05T23:26:29.117Z,92.43
2022-10-05T23:28:57.961Z,92.38
2022-10-05T23:31:30.767Z,91.97
2022-10-05T23:33:59.614Z,92.16
2022-10-05T23:36:32.452Z,91.71
2022-10-05T23:39:31.197Z,91.75
2022-10-05T23:42:00.781Z,92.48
2022-10-05T23:44:29.671Z,92.17
2022-10-05T23:46:58.357Z,92.22
2022-10-05T23:49:27.021Z,92.54
2022-10-05T23:51:57.113Z,92.27
2022-10-05T23:54:25.830Z,92.08
2022-10-05T23:56:54.497Z,92.01
2022-10-05T23:59:23.222Z,92.44
